sensor_id;sensor_type;location;lat;lon;timestamp;P1;durP1;ratioP1;P2;durP2;ratioP2
43297;SDS011;28892;55.640;37.532;2023-09-19T01:30:51;20.70;;;14.57;;
43297;SDS011;28892;55.640;37.532;2023-09-19T01:33:24;19.48;;;15.02;;
43297;SDS011;28892;55.640;37.532;2023-09-19T01:35:51;21.38;;;16.02;;
43297;SDS011;28892;55.640;37.532;2023-09-19T01:38:19;18.23;;;15.02;;
43297;SDS011;28892;55.640;37.532;2023-09-19T01:40:48;25.50;;;16.67;;
43297;SDS011;28892;55.640;37.532;2023-09-19T01:43:30;24.27;;;16.20;;
43297;SDS011;28892;55.640;37.532;2023-09-19T01:46:10;22.48;;;16.50;;
43297;SDS011;28892;55.640;37.532;2023-09-19T01:48:46;25.98;;;17.80;;
43297;SDS011;28892;55.640;37.532;2023-09-19T01:54:12;26.98;;;18.92;;
43297;SDS011;28892;55.640;37.532;2023-09-19T01:56:45;25.67;;;18.73;;
43297;SDS011;28892;55.640;37.532;2023-09-19T01:59:25;31.20;;;23.83;;
43297;SDS011;28892;55.640;37.532;2023-09-19T02:01:54;29.80;;;20.67;;
43297;SDS011;28892;55.640;37.532;2023-09-19T02:04:21;34.15;;;23.48;;
43297;SDS011;28892;55.640;37.532;2023-09-19T02:06:47;34.50;;;21.85;;
43297;SDS011;28892;55.640;37.532;2023-09-19T02:09:13;37.35;;;23.27;;
43297;SDS011;28892;55.640;37.532;2023-09-19T02:11:40;36.53;;;22.48;;
43297;SDS011;28892;55.640;37.532;2023-09-19T02:14:07;41.38;;;24.70;;
43297;SDS011;28892;55.640;37.532;2023-09-19T02:16:37;52.05;;;24.73;;
43297;SDS011;28892;55.640;37.532;2023-09-19T02:19:03;38.05;;;25.17;;
43297;SDS011;28892;55.640;37.532;2023-09-19T02:21:33;42.63;;;22.88;;
43297;SDS011;28892;55.640;37.532;2023-09-19T02:23:59;35.70;;;24.17;;
43297;SDS011;28892;55.640;37.532;2023-09-19T02:26:25;64.43;;;25.50;;
43297;SDS011;28892;55.640;37.532;2023-09-19T02:28:55;42.92;;;26.40;;
43297;SDS011;28892;55.640;37.532;2023-09-19T02:31:21;55.08;;;28.15;;
43297;SDS011;28892;55.640;37.532;2023-09-19T02:33:47;53.42;;;28.70;;
43297;SDS011;28892;55.640;37.532;2023-09-19T02:36:13;47.15;;;28.15;;
43297;SDS011;28892;55.640;37.532;2023-09-19T02:38:42;45.33;;;29.17;;
43297;SDS011;28892;55.640;37.532;2023-09-19T02:41:08;38.08;;;28.52;;
43297;SDS011;28892;55.640;37.532;2023-09-19T02:43:37;39.33;;;27.45;;
43297;SDS011;28892;55.640;37.532;2023-09-19T02:46:03;39.15;;;27.80;;
43297;SDS011;28892;55.640;37.532;2023-09-19T02:48:31;44.22;;;27.42;;
43297;SDS011;28892;55.640;37.532;2023-09-19T02:50:58;40.63;;;30.08;;
43297;SDS011;28892;55.640;37.532;2023-09-19T02:53:24;48.17;;;30.02;;
43297;SDS011;28892;55.640;37.532;2023-09-19T02:55:50;44.28;;;30.45;;
43297;SDS011;28892;55.640;37.532;2023-09-19T02:58:38;41.63;;;28.95;;
43297;SDS011;28892;55.640;37.532;2023-09-19T03:01:08;49.97;;;30.98;;
43297;SDS011;28892;55.640;37.532;2023-09-19T03:03:43;45.08;;;29.75;;
43297;SDS011;28892;55.640;37.532;2023-09-19T03:06:20;45.65;;;30.55;;
43297;SDS011;28892;55.640;37.532;2023-09-19T03:08:49;50.63;;;30.95;;
43297;SDS011;28892;55.640;37.532;2023-09-19T03:12:19;46.50;;;30.63;;
43297;SDS011;28892;55.640;37.532;2023-09-19T03:14:46;52.03;;;34.58;;
43297;SDS011;28892;55.640;37.532;2023-09-19T03:17:12;51.10;;;32.58;;
43297;SDS011;28892;55.640;37.532;2023-09-19T03:19:40;51.33;;;33.13;;
43297;SDS011;28892;55.640;37.532;2023-09-19T03:22:07;55.05;;;33.47;;
43297;SDS011;28892;55.640;37.532;2023-09-19T03:24:33;52.95;;;31.48;;
43297;SDS011;28892;55.640;37.532;2023-09-19T03:27:02;53.80;;;34.13;;
43297;SDS011;28892;55.640;37.532;2023-09-19T03:29:28;53.05;;;33.08;;
43297;SDS011;28892;55.640;37.532;2023-09-19T03:31:54;59.25;;;34.05;;
43297;SDS011;28892;55.640;37.532;2023-09-19T03:44:22;55.25;;;32.38;;
43297;SDS011;28892;55.640;37.532;2023-09-19T03:46:48;63.13;;;36.00;;
43297;SDS011;28892;55.640;37.532;2023-09-19T03:49:14;62.95;;;37.20;;
43297;SDS011;28892;55.640;37.532;2023-09-19T03:51:46;55.85;;;34.47;;
43297;SDS011;28892;55.640;37.532;2023-09-19T03:55:00;57.83;;;35.78;;
43297;SDS011;28892;55.640;37.532;2023-09-19T03:58:27;62.85;;;38.95;;
43297;SDS011;28892;55.640;37.532;2023-09-19T04:01:25;62.63;;;37.55;;
43297;SDS011;28892;55.640;37.532;2023-09-19T04:04:26;55.67;;;38.03;;
43297;SDS011;28892;55.640;37.532;2023-09-19T04:06:54;59.15;;;37.60;;
43297;SDS011;28892;55.640;37.532;2023-09-19T04:09:20;56.42;;;36.17;;
43297;SDS011;28892;55.640;37.532;2023-09-19T04:11:46;63.00;;;38.30;;
43297;SDS011;28892;55.640;37.532;2023-09-19T04:14:12;63.55;;;37.45;;
43297;SDS011;28892;55.640;37.532;2023-09-19T04:16:38;56.60;;;36.40;;
43297;SDS011;28892;55.640;37.532;2023-09-19T04:19:04;61.95;;;38.25;;
43297;SDS011;28892;55.640;37.532;2023-09-19T04:21:31;61.30;;;35.45;;
43297;SDS011;28892;55.640;37.532;2023-09-19T04:23:57;54.10;;;34.63;;
43297;SDS011;28892;55.640;37.532;2023-09-19T04:26:23;58.33;;;35.65;;
43297;SDS011;28892;55.640;37.532;2023-09-19T04:28:51;61.35;;;34.90;;
43297;SDS011;28892;55.640;37.532;2023-09-19T04:31:25;58.28;;;32.33;;
43297;SDS011;28892;55.640;37.532;2023-09-19T04:41:35;55.03;;;30.63;;
43297;SDS011;28892;55.640;37.532;2023-09-19T04:44:02;54.22;;;30.52;;
43297;SDS011;28892;55.640;37.532;2023-09-19T04:46:29;47.92;;;29.52;;
43297;SDS011;28892;55.640;37.532;2023-09-19T04:52:30;49.90;;;27.65;;
43297;SDS011;28892;55.640;37.532;2023-09-19T05:18:38;28.33;;;21.10;;
43297;SDS011;28892;55.640;37.532;2023-09-19T05:25:49;23.27;;;18.33;;
43297;SDS011;28892;55.640;37.532;2023-09-19T05:28:15;27.45;;;19.08;;
43297;SDS011;28892;55.640;37.532;2023-09-19T05:57:17;19.02;;;15.93;;
43297;SDS011;28892;55.640;37.532;2023-09-19T05:59:43;21.25;;;15.73;;
43297;SDS011;28892;55.640;37.532;2023-09-19T06:02:09;18.10;;;15.23;;
43297;SDS011;28892;55.640;37.532;2023-09-19T06:04:40;17.23;;;14.98;;
43297;SDS011;28892;55.640;37.532;2023-09-19T06:07:12;19.65;;;15.23;;
43297;SDS011;28892;55.640;37.532;2023-09-19T06:09:42;15.98;;;14.27;;
43297;SDS011;28892;55.640;37.532;2023-09-19T06:12:09;17.90;;;13.98;;
43297;SDS011;28892;55.640;37.532;2023-09-19T06:14:39;16.88;;;13.95;;
43297;SDS011;28892;55.640;37.532;2023-09-19T06:17:06;15.40;;;13.68;;
43297;SDS011;28892;55.640;37.532;2023-09-19T06:19:34;17.48;;;13.80;;
43297;SDS011;28892;55.640;37.532;2023-09-19T06:22:00;18.92;;;13.80;;
43297;SDS011;28892;55.640;37.532;2023-09-19T06:24:29;18.08;;;14.18;;
43297;SDS011;28892;55.640;37.532;2023-09-19T06:27:11;17.40;;;15.60;;
43297;SDS011;28892;55.640;37.532;2023-09-19T06:29:40;17.38;;;15.23;;
43297;SDS011;28892;55.640;37.532;2023-09-19T06:32:16;19.90;;;15.25;;
43297;SDS011;28892;55.640;37.532;2023-09-19T06:34:44;20.05;;;15.48;;
43297;SDS011;28892;55.640;37.532;2023-09-19T06:37:19;16.77;;;15.02;;
43297;SDS011;28892;55.640;37.532;2023-09-19T06:39:46;19.42;;;16.20;;
43297;SDS011;28892;55.640;37.532;2023-09-19T06:42:15;19.02;;;16.95;;
43297;SDS011;28892;55.640;37.532;2023-09-19T06:45:19;18.50;;;16.63;;
43297;SDS011;28892;55.640;37.532;2023-09-19T06:49:00;19.50;;;16.50;;
43297;SDS011;28892;55.640;37.532;2023-09-19T07:00:26;19.50;;;17.45;;
43297;SDS011;28892;55.640;37.532;2023-09-19T07:11:21;20.10;;;17.70;;
43297;SDS011;28892;55.640;37.532;2023-09-19T07:14:08;20.13;;;17.88;;
43297;SDS011;28892;55.640;37.532;2023-09-19T07:16:46;20.23;;;17.20;;
43297;SDS011;28892;55.640;37.532;2023-09-19T07:19:27;19.90;;;17.42;;
43297;SDS011;28892;55.640;37.532;2023-09-19T07:22:01;20.52;;;17.00;;
43297;SDS011;28892;55.640;37.532;2023-09-19T07:24:28;18.92;;;17.02;;
43297;SDS011;28892;55.640;37.532;2023-09-19T07:26:54;20.17;;;17.77;;
43297;SDS011;28892;55.640;37.532;2023-09-19T07:33:26;19.33;;;17.30;;
43297;SDS011;28892;55.640;37.532;2023-09-19T07:35:53;21.75;;;17.00;;
43297;SDS011;28892;55.640;37.532;2023-09-19T07:38:20;20.45;;;17.60;;
43297;SDS011;28892;55.640;37.532;2023-09-19T07:45:12;17.27;;;15.32;;
43297;SDS011;28892;55.640;37.532;2023-09-19T07:47:46;23.23;;;16.90;;
43297;SDS011;28892;55.640;37.532;2023-09-19T08:03:01;18.30;;;16.27;;
43297;SDS011;28892;55.640;37.532;2023-09-19T08:05:37;21.52;;;15.75;;
43297;SDS011;28892;55.640;37.532;2023-09-19T08:11:44;19.30;;;17.00;;
43297;SDS011;28892;55.640;37.532;2023-09-19T08:20:29;19.13;;;15.50;;
43297;SDS011;28892;55.640;37.532;2023-09-19T08:23:07;18.90;;;15.77;;
43297;SDS011;28892;55.640;37.532;2023-09-19T08:25:36;20.27;;;16.30;;
43297;SDS011;28892;55.640;37.532;2023-09-19T08:31:03;18.08;;;15.23;;
43297;SDS011;28892;55.640;37.532;2023-09-19T08:33:33;21.08;;;15.90;;
43297;SDS011;28892;55.640;37.532;2023-09-19T08:41:05;21.65;;;16.13;;
43297;SDS011;28892;55.640;37.532;2023-09-19T08:43:33;21.20;;;15.50;;
43297;SDS011;28892;55.640;37.532;2023-09-19T08:46:06;18.05;;;15.27;;
43297;SDS011;28892;55.640;37.532;2023-09-19T08:48:39;16.25;;;14.55;;
43297;SDS011;28892;55.640;37.532;2023-09-19T08:51:26;21.08;;;16.15;;
43297;SDS011;28892;55.640;37.532;2023-09-19T08:54:08;18.63;;;15.90;;
43297;SDS011;28892;55.640;37.532;2023-09-19T08:56:44;19.05;;;16.48;;
43297;SDS011;28892;55.640;37.532;2023-09-19T09:03:40;19.85;;;15.45;;
43297;SDS011;28892;55.640;37.532;2023-09-19T09:06:25;20.90;;;15.68;;
43297;SDS011;28892;55.640;37.532;2023-09-19T09:09:01;17.50;;;14.90;;
43297;SDS011;28892;55.640;37.532;2023-09-19T09:11:32;22.42;;;15.85;;
43297;SDS011;28892;55.640;37.532;2023-09-19T09:13:59;22.08;;;15.85;;
43297;SDS011;28892;55.640;37.532;2023-09-19T09:16:29;19.10;;;15.48;;
43297;SDS011;28892;55.640;37.532;2023-09-19T09:18:58;20.38;;;14.38;;
43297;SDS011;28892;55.640;37.532;2023-09-19T09:21:29;18.70;;;14.90;;
43297;SDS011;28892;55.640;37.532;2023-09-19T09:24:27;20.38;;;15.65;;
43297;SDS011;28892;55.640;37.532;2023-09-19T09:26:57;18.35;;;15.05;;
43297;SDS011;28892;55.640;37.532;2023-09-19T10:06:43;15.93;;;12.88;;
43297;SDS011;28892;55.640;37.532;2023-09-19T10:09:17;17.15;;;12.90;;
43297;SDS011;28892;55.640;37.532;2023-09-19T10:16:49;14.70;;;12.15;;
43297;SDS011;28892;55.640;37.532;2023-09-19T10:23:34;14.10;;;11.45;;
43297;SDS011;28892;55.640;37.532;2023-09-19T10:26:04;13.95;;;11.57;;
43297;SDS011;28892;55.640;37.532;2023-09-19T10:28:31;14.10;;;12.55;;
43297;SDS011;28892;55.640;37.532;2023-09-19T10:30:59;15.02;;;12.30;;
43297;SDS011;28892;55.640;37.532;2023-09-19T10:33:27;16.02;;;11.98;;
43297;SDS011;28892;55.640;37.532;2023-09-19T10:36:01;17.60;;;11.85;;
43297;SDS011;28892;55.640;37.532;2023-09-19T10:38:40;16.88;;;11.57;;
43297;SDS011;28892;55.640;37.532;2023-09-19T10:42:50;17.38;;;13.25;;
43297;SDS011;28892;55.640;37.532;2023-09-19T10:58:59;13.40;;;11.27;;
43297;SDS011;28892;55.640;37.532;2023-09-19T11:01:42;16.08;;;12.00;;
43297;SDS011;28892;55.640;37.532;2023-09-19T11:04:47;14.48;;;11.30;;
43297;SDS011;28892;55.640;37.532;2023-09-19T11:07:15;12.63;;;10.70;;
43297;SDS011;28892;55.640;37.532;2023-09-19T11:21:56;14.20;;;10.98;;
43297;SDS011;28892;55.640;37.532;2023-09-19T11:37:00;15.40;;;9.80;;
43297;SDS011;28892;55.640;37.532;2023-09-19T11:46:58;14.00;;;11.85;;
43297;SDS011;28892;55.640;37.532;2023-09-19T11:49:41;15.70;;;12.20;;
43297;SDS011;28892;55.640;37.532;2023-09-19T11:53:12;15.35;;;10.73;;
43297;SDS011;28892;55.640;37.532;2023-09-19T11:55:42;14.70;;;10.52;;
43297;SDS011;28892;55.640;37.532;2023-09-19T11:58:14;12.32;;;10.00;;
43297;SDS011;28892;55.640;37.532;2023-09-19T12:00:42;11.68;;;10.27;;
43297;SDS011;28892;55.640;37.532;2023-09-19T12:03:10;15.93;;;10.13;;
43297;SDS011;28892;55.640;37.532;2023-09-19T12:05:37;14.95;;;9.77;;
43297;SDS011;28892;55.640;37.532;2023-09-19T12:08:04;14.48;;;9.73;;
43297;SDS011;28892;55.640;37.532;2023-09-19T12:10:44;12.13;;;9.95;;
43297;SDS011;28892;55.640;37.532;2023-09-19T12:13:15;11.90;;;9.70;;
43297;SDS011;28892;55.640;37.532;2023-09-19T12:15:42;12.82;;;9.57;;
43297;SDS011;28892;55.640;37.532;2023-09-19T12:18:33;10.77;;;9.25;;
43297;SDS011;28892;55.640;37.532;2023-09-19T12:24:04;10.95;;;9.07;;
43297;SDS011;28892;55.640;37.532;2023-09-19T12:26:42;14.83;;;9.30;;
43297;SDS011;28892;55.640;37.532;2023-09-19T12:29:13;10.38;;;8.82;;
43297;SDS011;28892;55.640;37.532;2023-09-19T12:38:26;10.27;;;7.47;;
43297;SDS011;28892;55.640;37.532;2023-09-19T12:45:27;9.75;;;7.47;;
43297;SDS011;28892;55.640;37.532;2023-09-19T12:48:24;7.93;;;7.07;;
43297;SDS011;28892;55.640;37.532;2023-09-19T12:51:09;9.68;;;8.07;;
43297;SDS011;28892;55.640;37.532;2023-09-19T12:53:58;7.93;;;6.50;;
43297;SDS011;28892;55.640;37.532;2023-09-19T13:02:02;5.20;;;4.70;;
43297;SDS011;28892;55.640;37.532;2023-09-19T13:05:46;7.78;;;6.15;;
43297;SDS011;28892;55.640;37.532;2023-09-19T13:15:08;9.05;;;6.95;;
43297;SDS011;28892;55.640;37.532;2023-09-19T13:17:46;9.38;;;7.50;;
43297;SDS011;28892;55.640;37.532;2023-09-19T13:20:26;9.93;;;7.57;;
43297;SDS011;28892;55.640;37.532;2023-09-19T13:23:55;9.35;;;7.68;;
43297;SDS011;28892;55.640;37.532;2023-09-19T13:26:58;10.07;;;8.05;;
43297;SDS011;28892;55.640;37.532;2023-09-19T13:47:18;14.02;;;10.35;;
43297;SDS011;28892;55.640;37.532;2023-09-19T13:49:54;15.52;;;9.93;;
43297;SDS011;28892;55.640;37.532;2023-09-19T13:52:26;12.95;;;11.23;;
43297;SDS011;28892;55.640;37.532;2023-09-19T13:55:04;16.35;;;10.35;;
43297;SDS011;28892;55.640;37.532;2023-09-19T13:57:32;15.07;;;10.35;;
43297;SDS011;28892;55.640;37.532;2023-09-19T14:00:02;14.57;;;10.25;;
43297;SDS011;28892;55.640;37.532;2023-09-19T14:06:18;11.95;;;9.88;;
43297;SDS011;28892;55.640;37.532;2023-09-19T14:12:16;10.82;;;9.27;;
43297;SDS011;28892;55.640;37.532;2023-09-19T14:14:45;11.38;;;9.20;;
43297;SDS011;28892;55.640;37.532;2023-09-19T14:17:30;14.88;;;8.38;;
43297;SDS011;28892;55.640;37.532;2023-09-19T14:20:05;11.93;;;8.75;;
43297;SDS011;28892;55.640;37.532;2023-09-19T14:22:40;11.13;;;8.77;;
43297;SDS011;28892;55.640;37.532;2023-09-19T14:25:13;13.77;;;8.43;;
43297;SDS011;28892;55.640;37.532;2023-09-19T14:28:30;12.60;;;8.82;;
43297;SDS011;28892;55.640;37.532;2023-09-19T14:31:10;14.27;;;8.52;;
43297;SDS011;28892;55.640;37.532;2023-09-19T14:34:01;11.57;;;8.13;;
43297;SDS011;28892;55.640;37.532;2023-09-19T14:36:32;11.60;;;7.70;;
43297;SDS011;28892;55.640;37.532;2023-09-19T14:39:01;8.02;;;7.10;;
43297;SDS011;28892;55.640;37.532;2023-09-19T14:41:30;9.77;;;7.88;;
43297;SDS011;28892;55.640;37.532;2023-09-19T14:44:02;10.00;;;7.57;;
43297;SDS011;28892;55.640;37.532;2023-09-19T14:46:32;12.77;;;7.40;;
43297;SDS011;28892;55.640;37.532;2023-09-19T14:48:57;12.07;;;7.55;;
43297;SDS011;28892;55.640;37.532;2023-09-19T14:51:29;9.82;;;6.85;;
43297;SDS011;28892;55.640;37.532;2023-09-19T14:53:58;10.20;;;6.65;;
43297;SDS011;28892;55.640;37.532;2023-09-19T14:56:36;10.07;;;6.80;;
43297;SDS011;28892;55.640;37.532;2023-09-19T14:59:03;10.25;;;6.65;;
43297;SDS011;28892;55.640;37.532;2023-09-19T15:01:39;14.70;;;6.95;;
43297;SDS011;28892;55.640;37.532;2023-09-19T15:04:06;10.07;;;6.20;;
43297;SDS011;28892;55.640;37.532;2023-09-19T15:06:32;9.68;;;6.35;;
43297;SDS011;28892;55.640;37.532;2023-09-19T15:09:13;11.75;;;6.72;;
43297;SDS011;28892;55.640;37.532;2023-09-19T15:11:44;11.48;;;6.85;;
43297;SDS011;28892;55.640;37.532;2023-09-19T15:14:14;8.70;;;6.05;;
43297;SDS011;28892;55.640;37.532;2023-09-19T15:16:43;9.80;;;6.35;;
43297;SDS011;28892;55.640;37.532;2023-09-19T15:19:09;14.18;;;6.68;;
43297;SDS011;28892;55.640;37.532;2023-09-19T15:21:56;12.57;;;6.22;;
43297;SDS011;28892;55.640;37.532;2023-09-19T15:24:29;9.75;;;6.43;;
43297;SDS011;28892;55.640;37.532;2023-09-19T15:27:00;9.27;;;6.80;;
43297;SDS011;28892;55.640;37.532;2023-09-19T15:29:39;8.60;;;6.22;;
43297;SDS011;28892;55.640;37.532;2023-09-19T15:32:08;8.43;;;6.35;;
43297;SDS011;28892;55.640;37.532;2023-09-19T15:41:41;12.43;;;6.85;;
43297;SDS011;28892;55.640;37.532;2023-09-19T15:44:14;8.20;;;7.40;;
43297;SDS011;28892;55.640;37.532;2023-09-19T15:46:43;10.95;;;7.45;;
43297;SDS011;28892;55.640;37.532;2023-09-19T15:49:10;9.38;;;7.93;;
43297;SDS011;28892;55.640;37.532;2023-09-19T15:51:37;8.80;;;7.65;;
43297;SDS011;28892;55.640;37.532;2023-09-19T15:54:07;8.43;;;7.28;;
43297;SDS011;28892;55.640;37.532;2023-09-19T15:57:46;9.27;;;8.25;;
43297;SDS011;28892;55.640;37.532;2023-09-19T16:00:15;9.18;;;7.72;;
43297;SDS011;28892;55.640;37.532;2023-09-19T16:02:45;13.02;;;7.65;;
43297;SDS011;28892;55.640;37.532;2023-09-19T16:05:12;11.48;;;8.07;;
43297;SDS011;28892;55.640;37.532;2023-09-19T16:07:41;11.15;;;8.00;;
43297;SDS011;28892;55.640;37.532;2023-09-19T16:13:32;17.02;;;8.68;;
43297;SDS011;28892;55.640;37.532;2023-09-19T16:15:58;12.50;;;8.63;;
43297;SDS011;28892;55.640;37.532;2023-09-19T16:18:24;14.27;;;8.50;;
43297;SDS011;28892;55.640;37.532;2023-09-19T16:20:50;15.35;;;9.73;;
43297;SDS011;28892;55.640;37.532;2023-09-19T16:23:16;14.43;;;9.55;;
43297;SDS011;28892;55.640;37.532;2023-09-19T16:25:43;19.55;;;10.10;;
43297;SDS011;28892;55.640;37.532;2023-09-19T16:28:14;12.77;;;9.90;;
43297;SDS011;28892;55.640;37.532;2023-09-19T16:30:43;14.40;;;10.05;;
43297;SDS011;28892;55.640;37.532;2023-09-19T16:33:09;14.57;;;9.52;;
43297;SDS011;28892;55.640;37.532;2023-09-19T16:35:37;13.65;;;9.77;;
43297;SDS011;28892;55.640;37.532;2023-09-19T16:38:14;14.20;;;9.95;;
43297;SDS011;28892;55.640;37.532;2023-09-19T16:41:53;23.55;;;10.05;;
43297;SDS011;28892;55.640;37.532;2023-09-19T16:44:24;14.60;;;10.02;;
43297;SDS011;28892;55.640;37.532;2023-09-19T16:47:16;19.55;;;9.77;;
43297;SDS011;28892;55.640;37.532;2023-09-19T16:50:00;14.18;;;9.10;;
43297;SDS011;28892;55.640;37.532;2023-09-19T16:52:27;11.80;;;8.57;;
43297;SDS011;28892;55.640;37.532;2023-09-19T16:54:53;13.45;;;9.10;;
43297;SDS011;28892;55.640;37.532;2023-09-19T16:57:41;12.02;;;8.98;;
43297;SDS011;28892;55.640;37.532;2023-09-19T17:04:52;9.63;;;8.63;;
43297;SDS011;28892;55.640;37.532;2023-09-19T17:07:33;10.95;;;9.82;;
43297;SDS011;28892;55.640;37.532;2023-09-19T17:10:16;10.52;;;9.30;;
43297;SDS011;28892;55.640;37.532;2023-09-19T17:13:16;17.95;;;9.25;;
43297;SDS011;28892;55.640;37.532;2023-09-19T17:15:58;12.98;;;9.63;;
43297;SDS011;28892;55.640;37.532;2023-09-19T17:18:54;14.30;;;9.00;;
43297;SDS011;28892;55.640;37.532;2023-09-19T17:21:33;12.43;;;9.13;;
43297;SDS011;28892;55.640;37.532;2023-09-19T17:24:00;10.25;;;8.82;;
43297;SDS011;28892;55.640;37.532;2023-09-19T17:26:26;12.27;;;9.55;;
43297;SDS011;28892;55.640;37.532;2023-09-19T17:28:53;15.95;;;9.23;;
43297;SDS011;28892;55.640;37.532;2023-09-19T17:31:25;11.45;;;9.63;;
43297;SDS011;28892;55.640;37.532;2023-09-19T17:34:11;12.52;;;9.52;;
43297;SDS011;28892;55.640;37.532;2023-09-19T17:36:41;13.70;;;9.93;;
43297;SDS011;28892;55.640;37.532;2023-09-19T17:39:13;15.48;;;10.25;;
43297;SDS011;28892;55.640;37.532;2023-09-19T17:41:43;11.85;;;10.30;;
43297;SDS011;28892;55.640;37.532;2023-09-19T17:44:09;13.73;;;9.32;;
43297;SDS011;28892;55.640;37.532;2023-09-19T17:46:37;14.15;;;9.80;;
43297;SDS011;28892;55.640;37.532;2023-09-19T17:49:04;16.98;;;9.68;;
43297;SDS011;28892;55.640;37.532;2023-09-19T17:51:30;13.75;;;9.65;;
43297;SDS011;28892;55.640;37.532;2023-09-19T17:53:58;13.18;;;9.73;;
43297;SDS011;28892;55.640;37.532;2023-09-19T17:56:34;13.43;;;10.20;;
43297;SDS011;28892;55.640;37.532;2023-09-19T17:59:00;10.75;;;9.20;;
43297;SDS011;28892;55.640;37.532;2023-09-19T18:01:30;12.10;;;10.10;;
43297;SDS011;28892;55.640;37.532;2023-09-19T18:03:58;12.23;;;9.35;;
43297;SDS011;28892;55.640;37.532;2023-09-19T18:06:31;11.73;;;9.68;;
43297;SDS011;28892;55.640;37.532;2023-09-19T18:09:26;18.77;;;9.93;;
43297;SDS011;28892;55.640;37.532;2023-09-19T18:11:54;15.48;;;9.90;;
43297;SDS011;28892;55.640;37.532;2023-09-19T18:17:28;12.95;;;9.45;;
43297;SDS011;28892;55.640;37.532;2023-09-19T18:20:02;12.60;;;10.02;;
43297;SDS011;28892;55.640;37.532;2023-09-19T18:24:18;12.85;;;10.40;;
43297;SDS011;28892;55.640;37.532;2023-09-19T18:26:44;13.25;;;10.38;;
43297;SDS011;28892;55.640;37.532;2023-09-19T18:29:41;12.77;;;9.95;;
43297;SDS011;28892;55.640;37.532;2023-09-19T18:32:15;14.65;;;10.52;;
43297;SDS011;28892;55.640;37.532;2023-09-19T18:34:55;11.60;;;10.40;;
43297;SDS011;28892;55.640;37.532;2023-09-19T18:37:28;14.68;;;10.73;;
43297;SDS011;28892;55.640;37.532;2023-09-19T18:40:45;14.77;;;10.98;;
43297;SDS011;28892;55.640;37.532;2023-09-19T18:43:14;15.48;;;11.40;;
43297;SDS011;28892;55.640;37.532;2023-09-19T18:46:27;13.77;;;11.65;;
43297;SDS011;28892;55.640;37.532;2023-09-19T18:48:55;20.63;;;11.52;;
43297;SDS011;28892;55.640;37.532;2023-09-19T18:51:21;13.93;;;11.82;;
43297;SDS011;28892;55.640;37.532;2023-09-19T18:53:53;14.45;;;11.07;;
43297;SDS011;28892;55.640;37.532;2023-09-19T18:56:21;13.13;;;9.50;;
43297;SDS011;28892;55.640;37.532;2023-09-19T18:58:50;17.75;;;11.30;;
43297;SDS011;28892;55.640;37.532;2023-09-19T19:01:16;14.98;;;11.18;;
43297;SDS011;28892;55.640;37.532;2023-09-19T19:03:42;18.05;;;11.55;;
43297;SDS011;28892;55.640;37.532;2023-09-19T19:06:12;14.10;;;11.35;;
43297;SDS011;28892;55.640;37.532;2023-09-19T19:09:03;15.38;;;10.90;;
43297;SDS011;28892;55.640;37.532;2023-09-19T19:11:33;14.68;;;11.50;;
43297;SDS011;28892;55.640;37.532;2023-09-19T19:14:00;18.15;;;11.75;;
43297;SDS011;28892;55.640;37.532;2023-09-19T19:16:32;16.42;;;11.20;;
43297;SDS011;28892;55.640;37.532;2023-09-19T19:19:30;14.85;;;11.77;;
43297;SDS011;28892;55.640;37.532;2023-09-19T19:22:10;15.60;;;10.73;;
43297;SDS011;28892;55.640;37.532;2023-09-19T19:24:40;13.90;;;11.18;;
43297;SDS011;28892;55.640;37.532;2023-09-19T19:27:21;15.10;;;11.25;;
43297;SDS011;28892;55.640;37.532;2023-09-19T19:30:24;14.07;;;11.43;;
43297;SDS011;28892;55.640;37.532;2023-09-19T19:32:53;16.05;;;11.30;;
43297;SDS011;28892;55.640;37.532;2023-09-19T19:35:25;13.63;;;11.02;;
43297;SDS011;28892;55.640;37.532;2023-09-19T19:38:15;11.02;;;9.32;;
43297;SDS011;28892;55.640;37.532;2023-09-19T19:40:47;11.88;;;10.57;;
43297;SDS011;28892;55.640;37.532;2023-09-19T19:43:22;13.35;;;10.10;;
43297;SDS011;28892;55.640;37.532;2023-09-19T19:46:30;12.70;;;10.65;;
43297;SDS011;28892;55.640;37.532;2023-09-19T19:49:12;14.45;;;9.63;;
43297;SDS011;28892;55.640;37.532;2023-09-19T19:52:12;15.90;;;9.77;;
43297;SDS011;28892;55.640;37.532;2023-09-19T20:02:09;16.52;;;9.75;;
43297;SDS011;28892;55.640;37.532;2023-09-19T20:04:50;11.60;;;10.02;;
43297;SDS011;28892;55.640;37.532;2023-09-19T20:07:24;13.45;;;10.05;;
43297;SDS011;28892;55.640;37.532;2023-09-19T20:10:20;12.27;;;9.57;;
43297;SDS011;28892;55.640;37.532;2023-09-19T20:13:45;12.27;;;9.35;;
43297;SDS011;28892;55.640;37.532;2023-09-19T20:16:41;10.90;;;8.98;;
43297;SDS011;28892;55.640;37.532;2023-09-19T20:19:29;11.18;;;9.27;;
43297;SDS011;28892;55.640;37.532;2023-09-19T20:22:24;12.88;;;9.45;;
43297;SDS011;28892;55.640;37.532;2023-09-19T20:24:50;10.60;;;9.02;;
43297;SDS011;28892;55.640;37.532;2023-09-19T20:27:24;11.75;;;9.85;;
43297;SDS011;28892;55.640;37.532;2023-09-19T20:29:59;12.48;;;9.30;;
43297;SDS011;28892;55.640;37.532;2023-09-19T20:52:48;10.18;;;8.43;;
43297;SDS011;28892;55.640;37.532;2023-09-19T20:59:54;11.32;;;9.20;;
43297;SDS011;28892;55.640;37.532;2023-09-19T21:03:45;10.10;;;8.70;;
43297;SDS011;28892;55.640;37.532;2023-09-19T21:09:35;12.35;;;9.20;;
43297;SDS011;28892;55.640;37.532;2023-09-19T21:12:31;12.77;;;9.27;;
43297;SDS011;28892;55.640;37.532;2023-09-19T21:19:26;11.30;;;10.10;;
43297;SDS011;28892;55.640;37.532;2023-09-19T21:24:34;11.98;;;10.45;;
43297;SDS011;28892;55.640;37.532;2023-09-19T21:27:12;9.82;;;8.75;;
43297;SDS011;28892;55.640;37.532;2023-09-19T21:30:07;9.35;;;7.75;;
43297;SDS011;28892;55.640;37.532;2023-09-19T21:32:38;10.05;;;7.70;;
43297;SDS011;28892;55.640;37.532;2023-09-19T21:35:44;10.07;;;7.90;;
43297;SDS011;28892;55.640;37.532;2023-09-19T21:38:11;9.80;;;7.75;;
43297;SDS011;28892;55.640;37.532;2023-09-19T21:40:55;9.10;;;7.72;;
43297;SDS011;28892;55.640;37.532;2023-09-19T21:44:29;12.20;;;8.13;;
43297;SDS011;28892;55.640;37.532;2023-09-19T21:47:49;8.98;;;7.82;;
43297;SDS011;28892;55.640;37.532;2023-09-19T21:54:07;10.93;;;7.75;;
43297;SDS011;28892;55.640;37.532;2023-09-19T21:56:46;8.50;;;7.70;;
43297;SDS011;28892;55.640;37.532;2023-09-19T21:59:39;8.90;;;8.05;;
43297;SDS011;28892;55.640;37.532;2023-09-19T22:02:08;8.88;;;7.97;;
43297;SDS011;28892;55.640;37.532;2023-09-19T22:08:50;10.93;;;7.50;;
43297;SDS011;28892;55.640;37.532;2023-09-19T22:11:44;8.25;;;7.43;;
43297;SDS011;28892;55.640;37.532;2023-09-19T22:14:38;9.90;;;7.80;;
43297;SDS011;28892;55.640;37.532;2023-09-19T22:17:14;9.05;;;7.90;;
43297;SDS011;28892;55.640;37.532;2023-09-19T22:44:18;11.98;;;7.72;;
43297;SDS011;28892;55.640;37.532;2023-09-19T22:46:43;8.63;;;7.72;;
43297;SDS011;28892;55.640;37.532;2023-09-19T22:49:12;9.55;;;8.05;;
43297;SDS011;28892;55.640;37.532;2023-09-19T22:54:39;11.63;;;8.95;;
43297;SDS011;28892;55.640;37.532;2023-09-19T22:57:06;9.05;;;8.00;;
43297;SDS011;28892;55.640;37.532;2023-09-19T22:59:43;9.27;;;6.93;;